Time;durP1;ratioP1;P1;durP2;ratioP2;P2;SDS_P1;SDS_P2;PMS_P1;PMS_P2;Temp;Humidity;BMP_temperature;BMP_pressure;BME280_temperature;BME280_humidity;BME280_pressure;Samples;Min_cycle;Max_cycle;Signal;HPM_P1;HPM_P2
2022/05/31 00:00:36;;;;;;;11.15;8.00;;;;;;;10.55;75.12;100425.63;5094394;28;20067;-41
2022/05/31 00:03:04;;;;;;;10.80;7.82;;;;;;;10.46;75.38;100422.28;5076420;28;20077;-41
2022/05/31 00:05:31;;;;;;;9.88;8.38;;;;;;;10.46;75.80;100425.78;5076441;28;20024;-42
2022/05/31 00:07:57;;;;;;;11.00;7.80;;;;;;;10.40;76.27;100429.25;5094311;28;20078;-41
2022/05/31 00:10:24;;;;;;;15.32;8.88;;;;;;;10.39;76.05;100424.88;5093984;28;20399;-42
2022/05/31 00:12:50;;;;;;;10.25;7.85;;;;;;;10.41;76.06;100413.97;5094367;28;20048;-41
2022/05/31 00:15:17;;;;;;;9.82;7.18;;;;;;;10.58;74.87;100431.44;5094161;28;20081;-41
2022/05/31 00:17:43;;;;;;;7.45;6.75;;;;;;;10.52;75.50;100424.16;5075434;28;20035;-41
2022/05/31 00:20:12;;;;;;;11.85;6.93;;;;;;;10.55;74.78;100422.94;5075501;28;20027;-41
2022/05/31 00:22:39;;;;;;;10.13;8.18;;;;;;;10.47;76.21;100429.28;5074236;28;20061;-42
2022/05/31 00:25:07;;;;;;;8.93;7.90;;;;;;;10.42;76.63;100423.69;5039365;28;20032;-42
2022/05/31 00:27:33;;;;;;;8.52;7.65;;;;;;;10.44;75.99;100435.06;5074230;28;20119;-42
2022/05/31 00:29:59;;;;;;;9.32;7.30;;;;;;;10.48;75.87;100430.13;5039724;28;20028;-42
2022/05/31 00:32:30;;;;;;;10.52;7.70;;;;;;;10.44;75.85;100427.00;5074100;28;20024;-42
2022/05/31 00:34:59;;;;;;;9.90;8.40;;;;;;;10.47;76.06;100421.22;5074746;28;20039;-42
2022/05/31 00:37:25;;;;;;;9.07;8.23;;;;;;;10.52;75.66;100421.47;5075106;28;20033;-43
2022/05/31 00:39:51;;;;;;;9.77;8.18;;;;;;;10.38;75.58;100401.78;5057334;28;20101;-42
2022/05/31 00:42:20;;;;;;;11.55;8.80;;;;;;;10.55;75.40;100431.00;5057591;28;20425;-47
2022/05/31 00:44:46;;;;;;;8.70;7.45;;;;;;;10.54;75.85;100429.34;5075384;28;20032;-46
2022/05/31 00:47:24;;;;;;;9.95;6.20;;;;;;;10.56;75.21;100428.13;5075491;28;20040;-42
2022/05/31 00:49:57;;;;;;;11.10;8.02;;;;;;;10.47;76.36;100429.28;5056089;28;20040;-42
2022/05/31 00:52:34;;;;;;;11.18;8.70;;;;;;;10.49;76.69;100429.09;5073768;28;20477;-42
2022/05/31 00:55:06;;;;;;;13.77;8.43;;;;;;;10.43;76.47;100420.78;5055543;28;20143;-42
2022/05/31 00:57:35;;;;;;;9.02;6.70;;;;;;;10.56;75.44;100420.06;5056267;28;20032;-42
2022/05/31 01:00:09;;;;;;;11.45;7.50;;;;;;;10.49;76.20;100413.81;5073602;28;20024;-42
2022/05/31 01:02:37;;;;;;;14.68;9.15;;;;;;;10.40;77.21;100436.44;5056609;28;20030;-42
2022/05/31 01:05:05;;;;;;;10.38;7.32;;;;;;;10.44;77.07;100425.16;5078411;28;20035;-46
2022/05/31 01:07:32;;;;;;;10.27;8.57;;;;;;;10.51;76.74;100427.03;5079230;28;20040;-43
2022/05/31 01:09:59;;;;;;;10.82;7.80;;;;;;;10.51;77.00;100427.03;5081611;28;20024;-41
2022/05/31 01:12:26;;;;;;;12.52;9.63;;;;;;;10.49;76.78;100421.88;5075411;28;20028;-45
2022/05/31 01:14:52;;;;;;;9.13;8.23;;;;;;;10.46;77.20;100423.09;5065390;28;20144;-42
2022/05/31 01:17:21;;;;;;;11.13;8.40;;;;;;;10.46;76.59;100415.03;5066001;28;20044;-41
2022/05/31 01:20:03;;;;;;;8.90;6.97;;;;;;;10.54;76.84;100415.94;5076560;28;20027;-42
2022/05/31 01:22:37;;;;;;;7.93;6.70;;;;;;;10.45;77.02;100425.97;5055305;28;20314;-42
2022/05/31 01:25:18;;;;;;;7.43;6.70;;;;;;;10.43;77.06;100417.28;5055195;28;20188;-42
2022/05/31 01:27:58;;;;;;;7.85;6.90;;;;;;;10.41;76.91;100419.34;5054909;28;20034;-45
2022/05/31 01:30:25;;;;;;;7.18;6.47;;;;;;;10.34;76.64;100413.91;5056259;28;20029;-41
2022/05/31 01:33:13;;;;;;;8.90;6.20;;;;;;;10.37;76.63;100418.06;5073963;28;20035;-41
2022/05/31 01:38:39;;;;;;;7.00;6.13;;;;;;;10.35;76.89;100415.56;5074280;28;20082;-40
2022/05/31 01:41:16;;;;;;;5.70;4.40;;;;;;;10.38;76.53;100414.34;5056401;28;20115;-40
2022/05/31 01:43:45;;;;;;;4.55;4.15;;;;;;;10.39;76.68;100419.53;5074221;28;20528;-41
2022/05/31 01:46:17;;;;;;;6.15;4.40;;;;;;;10.35;75.62;100399.47;5073922;28;20041;-42
2022/05/31 01:48:43;;;;;;;5.55;4.53;;;;;;;10.43;75.83;100418.09;5055911;28;20090;-42
2022/05/31 01:51:11;;;;;;;4.50;3.92;;;;;;;10.23;75.68;100391.09;5073726;28;20029;-42
2022/05/31 01:53:37;;;;;;;6.43;4.22;;;;;;;10.27;75.76;100407.63;5073776;28;20052;-42
2022/05/31 01:56:05;;;;;;;8.55;5.05;;;;;;;10.16;76.29;100400.94;5074529;28;20028;-41
2022/05/31 01:58:37;;;;;;;5.10;4.38;;;;;;;10.04;76.81;100413.19;5073760;28;20107;-41
2022/05/31 02:01:02;;;;;;;5.82;4.03;;;;;;;9.75;77.15;100377.41;5055859;28;20025;-40
2022/05/31 02:03:31;;;;;;;7.78;6.22;;;;;;;9.81;77.42;100405.31;5055850;28;20029;-41
2022/05/31 02:05:58;;;;;;;7.43;5.90;;;;;;;9.68;78.35;100414.06;5055945;28;20033;-41
2022/05/31 02:08:29;;;;;;;6.80;5.53;;;;;;;9.65;78.46;100411.75;5073320;28;20024;-43
2022/05/31 02:10:56;;;;;;;6.50;5.72;;;;;;;9.58;78.86;100408.97;5073116;28;20104;-41
2022/05/31 02:13:25;;;;;;;5.72;5.15;;;;;;;9.53;79.28;100411.41;5073182;28;20032;-41
2022/05/31 02:15:51;;;;;;;6.65;5.13;;;;;;;9.49;78.71;100404.75;5056190;28;20025;-41
2022/05/31 02:18:17;;;;;;;6.15;5.55;;;;;;;9.58;78.10;100413.50;5055541;28;20366;-41
2022/05/31 02:20:43;;;;;;;5.50;4.95;;;;;;;9.50;78.15;100396.50;5073346;28;20089;-41
2022/05/31 02:23:09;;;;;;;6.80;5.63;;;;;;;9.52;78.46;100416.94;5073043;28;20549;-41
2022/05/31 02:25:35;;;;;;;7.80;5.13;;;;;;;9.38;78.94;100403.38;5073642;28;20029;-41
2022/05/31 02:28:02;;;;;;;7.45;6.70;;;;;;;9.26;79.62;100394.97;5073561;28;20032;-42
2022/05/31 02:30:28;;;;;;;6.10;4.65;;;;;;;9.38;79.12;100419.47;5055384;28;20108;-41
2022/05/31 02:32:54;;;;;;;7.20;6.47;;;;;;;9.33;79.25;100415.69;5073252;28;20028;-41
2022/05/31 02:35:20;;;;;;;7.47;5.55;;;;;;;9.24;80.10;100409.59;5072743;28;20039;-41
2022/05/31 02:37:45;;;;;;;5.45;5.03;;;;;;;9.26;79.37;100410.22;5074021;28;20048;-42
2022/05/31 02:40:12;;;;;;;10.45;6.85;;;;;;;9.21;79.40;100408.13;5058533;28;20028;-42
2022/05/31 02:42:39;;;;;;;7.05;6.45;;;;;;;9.18;79.82;100416.53;5060229;28;20676;-42
2022/05/31 02:45:08;;;;;;;6.72;5.43;;;;;;;9.21;79.65;100426.03;5077447;28;20028;-42
2022/05/31 02:47:34;;;;;;;6.90;5.72;;;;;;;9.19;79.26;100414.66;5059191;28;20032;-42
2022/05/31 02:49:59;;;;;;;6.38;5.82;;;;;;;9.31;78.80;100410.50;5077226;28;20024;-43
2022/05/31 02:52:25;;;;;;;5.43;4.80;;;;;;;9.33;78.50;100426.41;5077218;28;20113;-43
2022/05/31 02:54:51;;;;;;;5.75;5.25;;;;;;;9.15;78.23;100391.94;5058853;28;20035;-41
2022/05/31 02:57:17;;;;;;;5.90;5.03;;;;;;;9.28;78.15;100416.22;5076748;28;20090;-42
2022/05/31 02:59:43;;;;;;;6.18;5.57;;;;;;;9.13;78.92;100408.22;5076808;28;20032;-43
2022/05/31 03:02:10;;;;;;;10.38;6.57;;;;;;;8.99;79.38;100401.84;5076766;28;20033;-41
2022/05/31 03:04:36;;;;;;;7.10;6.15;;;;;;;9.06;79.41;100413.50;5076858;28;20028;-46
2022/05/31 03:07:03;;;;;;;6.35;5.85;;;;;;;9.15;78.73;100418.75;5059094;28;20082;-44
2022/05/31 03:09:30;;;;;;;9.55;5.55;;;;;;;9.10;78.71;100419.28;5058686;28;20040;-41
2022/05/31 03:12:05;;;;;;;5.80;5.03;;;;;;;9.02;78.77;100398.78;5076739;28;20029;-42
2022/05/31 03:14:39;;;;;;;5.57;5.07;;;;;;;9.13;78.50;100397.50;5076679;28;20052;-43
2022/05/31 03:17:20;;;;;;;6.75;5.95;;;;;;;9.03;78.72;100418.38;5059096;28;20024;-44
2022/05/31 03:19:54;;;;;;;6.72;6.13;;;;;;;8.83;79.32;100410.88;5076892;28;20080;-42
2022/05/31 03:22:27;;;;;;;4.80;4.40;;;;;;;8.80;79.37;100402.38;5059774;28;20028;-41
2022/05/31 03:24:58;;;;;;;6.55;5.78;;;;;;;8.88;78.77;100426.41;5075814;28;20056;-42
2022/05/31 03:27:25;;;;;;;6.28;5.55;;;;;;;8.78;79.39;100421.31;5057835;28;20044;-41
2022/05/31 03:29:53;;;;;;;7.00;5.03;;;;;;;8.75;79.20;100412.81;5075960;28;20032;-41
2022/05/31 03:32:20;;;;;;;6.05;5.50;;;;;;;8.70;79.52;100408.84;5076039;28;20423;-43
2022/05/31 03:34:45;;;;;;;6.70;5.63;;;;;;;8.81;78.77;100420.94;5075797;28;20090;-41
2022/05/31 03:37:11;;;;;;;6.00;5.40;;;;;;;8.88;78.31;100423.75;5057773;28;20037;-41
2022/05/31 03:39:37;;;;;;;5.32;4.85;;;;;;;8.87;78.78;100422.88;5057221;28;20028;-41
2022/05/31 03:42:05;;;;;;;5.63;4.43;;;;;;;8.86;78.36;100417.72;5057398;28;20128;-41
2022/05/31 03:44:31;;;;;;;6.72;5.50;;;;;;;8.93;77.80;100415.97;5075899;28;20038;-41
2022/05/31 03:46:57;;;;;;;5.82;5.28;;;;;;;8.90;77.70;100416.34;5077208;28;20032;-41
2022/05/31 03:49:23;;;;;;;8.63;5.35;;;;;;;8.84;78.22;100412.56;5078569;28;20063;-59
2022/05/31 03:51:49;;;;;;;5.05;4.60;;;;;;;8.83;77.94;100410.06;5077027;28;20380;-41
2022/05/31 03:54:15;;;;;;;5.25;4.85;;;;;;;8.85;78.22;100418.72;5077089;28;20033;-42
2022/05/31 03:59:43;;;;;;;6.65;6.05;;;;;;;8.69;78.82;100399.16;5075547;28;20032;-41
2022/05/31 04:02:09;;;;;;;9.25;6.10;;;;;;;8.74;79.41;100419.19;5075469;28;20036;-41
2022/05/31 04:04:36;;;;;;;10.90;7.07;;;;;;;8.71;79.70;100413.19;5075290;28;20358;-41
2022/05/31 04:07:03;;;;;;;7.82;6.97;;;;;;;8.74;79.48;100408.47;5075304;28;20036;-41
2022/05/31 04:09:29;;;;;;;6.57;6.00;;;;;;;8.87;79.09;100416.69;5057347;28;20028;-41
2022/05/31 04:11:57;;;;;;;6.70;6.10;;;;;;;8.78;79.12;100415.13;5056822;28;20036;-41
2022/05/31 04:14:23;;;;;;;8.90;6.38;;;;;;;8.82;79.27;100411.06;5075393;28;20067;-41
2022/05/31 04:16:48;;;;;;;8.30;7.60;;;;;;;8.89;78.77;100407.47;5075326;28;20122;-41
2022/05/31 04:19:15;;;;;;;7.28;6.63;;;;;;;8.81;79.14;100404.06;5075636;28;20032;-41
2022/05/31 04:21:40;;;;;;;8.25;7.53;;;;;;;8.91;79.02;100402.78;5058094;28;20369;-41
2022/05/31 04:24:09;;;;;;;7.60;6.90;;;;;;;8.89;79.46;100407.47;5071550;28;20052;-41
2022/05/31 04:26:44;;;;;;;7.75;7.05;;;;;;;8.94;79.01;100406.09;5095231;28;20123;-41
2022/05/31 04:29:10;;;;;;;9.85;8.43;;;;;;;8.91;79.62;100407.28;5094934;28;20032;-41
2022/05/31 04:31:36;;;;;;;10.43;7.00;;;;;;;9.03;79.19;100410.34;5094741;28;20038;-41
2022/05/31 04:34:04;;;;;;;9.90;9.00;;;;;;;9.13;78.56;100413.56;5059953;28;20062;-42
2022/05/31 04:36:30;;;;;;;8.98;8.07;;;;;;;9.21;78.21;100418.00;5095153;28;20043;-41
2022/05/31 04:38:56;;;;;;;10.32;9.43;;;;;;;9.10;78.50;100416.59;5077215;28;20020;-42
2022/05/31 04:41:24;;;;;;;10.77;9.50;;;;;;;9.15;78.68;100426.78;5094811;28;20050;-41
2022/05/31 04:43:52;;;;;;;9.25;8.38;;;;;;;9.12;78.87;100406.56;5094835;28;20084;-41
2022/05/31 04:46:21;;;;;;;7.97;7.18;;;;;;;9.28;78.31;100416.22;5077246;28;20030;-41
2022/05/31 04:48:47;;;;;;;11.40;9.38;;;;;;;9.14;78.73;100417.91;5094295;28;20032;-41
2022/05/31 04:51:14;;;;;;;9.80;8.90;;;;;;;9.06;79.59;100412.63;5076701;28;20024;-42
2022/05/31 04:53:41;;;;;;;9.57;8.68;;;;;;;9.10;78.96;100421.97;5094600;28;20060;-41
2022/05/31 04:56:10;;;;;;;9.57;8.68;;;;;;;9.15;79.53;100429.47;5094194;28;20061;-41
2022/05/31 04:58:37;;;;;;;11.00;8.70;;;;;;;9.17;79.17;100427.44;5059551;28;20526;-42
2022/05/31 05:01:06;;;;;;;10.10;9.20;;;;;;;9.04;79.83;100407.47;5094332;28;20036;-42
2022/05/31 05:03:34;;;;;;;10.57;7.47;;;;;;;9.18;79.40;100426.41;5094783;28;20032;-41
2022/05/31 05:06:03;;;;;;;9.18;8.38;;;;;;;9.13;79.54;100407.38;5094280;28;20380;-41
2022/05/31 05:08:30;;;;;;;8.00;7.25;;;;;;;9.29;78.65;100421.41;5075584;28;20057;-41
2022/05/31 05:10:59;;;;;;;11.23;9.18;;;;;;;9.36;78.80;100416.16;5077907;28;20115;-42
2022/05/31 05:13:25;;;;;;;10.38;8.93;;;;;;;9.24;78.19;100388.97;5080968;28;20020;-43
2022/05/31 05:15:53;;;;;;;8.93;7.38;;;;;;;9.48;78.78;100420.00;5079434;28;20046;-42
2022/05/31 05:18:19;;;;;;;13.25;9.13;;;;;;;9.45;78.32;100411.50;5096427;28;20067;-42
2022/05/31 05:20:45;;;;;;;9.00;8.27;;;;;;;9.41;78.86;100410.22;5094551;28;20035;-42
2022/05/31 05:23:11;;;;;;;8.63;7.82;;;;;;;9.32;78.64;100393.41;5076680;28;20044;-42
2022/05/31 05:25:37;;;;;;;7.82;7.10;;;;;;;9.42;78.82;100411.88;5094911;28;20393;-42
2022/05/31 05:30:38;;;;;;;9.88;8.05;;;;;;;9.56;78.48;100410.19;5094177;28;20031;-42
2022/05/31 05:30:49;;;;;;;6.57;5.75;;;;;;;9.64;77.38;100394.81;5064822;28;20032;-41
2022/05/31 05:33:15;;;;;;;8.52;7.70;;;;;;;9.69;77.12;100399.59;5076451;28;20435;-42
2022/05/31 05:35:41;;;;;;;10.25;7.95;;;;;;;9.67;77.46;100396.28;5094023;28;20085;-42
2022/05/31 05:38:07;;;;;;;9.35;8.52;;;;;;;9.68;77.74;100406.00;5076307;28;20405;-41
2022/05/31 05:40:34;;;;;;;8.52;7.60;;;;;;;9.36;77.79;100356.34;5075651;28;20074;-41
2022/05/31 05:43:00;;;;;;;7.57;6.80;;;;;;;9.71;77.96;100400.25;5075603;28;20028;-41
2022/05/31 05:45:26;;;;;;;8.05;7.32;;;;;;;9.67;78.03;100390.91;5075958;28;20115;-41
2022/05/31 05:47:52;;;;;;;7.10;6.60;;;;;;;9.85;77.43;100407.41;5076481;28;20039;-41
2022/05/31 05:50:18;;;;;;;8.55;6.43;;;;;;;9.97;77.12;100404.22;5095293;28;20040;-41
2022/05/31 05:52:49;;;;;;;9.77;7.22;;;;;;;10.10;76.67;100406.22;5096256;28;20024;-43
2022/05/31 05:55:15;;;;;;;10.43;7.63;;;;;;;10.05;76.61;100410.31;5095333;28;20028;-41
2022/05/31 05:57:41;;;;;;;7.35;6.57;;;;;;;10.15;76.61;100415.34;5077058;28;20081;-41
2022/05/31 06:00:08;;;;;;;7.07;6.35;;;;;;;10.18;76.66;100417.66;5096354;28;20149;-41
2022/05/31 06:02:36;;;;;;;8.02;7.15;;;;;;;10.21;75.77;100403.00;5095406;28;20484;-41
2022/05/31 06:05:12;;;;;;;10.68;6.38;;;;;;;10.36;76.07;100413.69;5094432;28;20035;-41
2022/05/31 06:07:43;;;;;;;8.10;6.32;;;;;;;10.28;75.28;100403.91;5094471;28;20028;-41
2022/05/31 06:10:17;;;;;;;6.32;5.82;;;;;;;10.39;75.03;100399.91;5059767;28;20070;-41
2022/05/31 06:12:51;;;;;;;6.40;5.80;;;;;;;10.36;75.33;100393.06;5095157;28;20028;-42
2022/05/31 06:15:22;;;;;;;7.00;5.28;;;;;;;10.40;74.78;100386.28;5094431;28;20034;-41
2022/05/31 06:17:52;;;;;;;6.18;5.68;;;;;;;10.71;74.27;100411.91;5094655;28;20039;-42
2022/05/31 06:20:20;;;;;;;10.05;6.32;;;;;;;10.79;73.91;100410.94;5080916;28;20020;-42
2022/05/31 06:22:46;;;;;;;7.68;5.97;;;;;;;10.82;74.36;100406.00;5081210;28;20028;-41
2022/05/31 06:25:15;;;;;;;7.05;6.07;;;;;;;10.87;73.83;100410.78;5081493;28;20106;-41
2022/05/31 06:27:40;;;;;;;5.30;4.78;;;;;;;10.87;73.83;100413.47;5080221;28;20123;-41
2022/05/31 06:30:07;;;;;;;5.20;4.80;;;;;;;10.79;74.16;100409.09;5080204;28;20071;-41
2022/05/31 06:32:33;;;;;;;5.65;5.25;;;;;;;10.52;74.02;100383.91;5080216;28;20024;-41
2022/05/31 06:34:59;;;;;;;7.72;4.50;;;;;;;10.76;73.43;100414.03;5080560;28;20077;-42
2022/05/31 06:37:28;;;;;;;7.00;4.45;;;;;;;10.72;73.68;100416.28;5082120;28;20436;-41
2022/05/31 06:39:54;;;;;;;5.57;5.10;;;;;;;10.72;73.22;100415.44;5081872;28;20032;-42
2022/05/31 06:42:20;;;;;;;6.38;4.30;;;;;;;10.40;73.81;100385.44;5062922;28;20032;-42
2022/05/31 06:44:46;;;;;;;7.15;4.47;;;;;;;10.62;73.84;100410.41;5060596;28;20035;-41
2022/05/31 06:47:12;;;;;;;9.35;5.15;;;;;;;10.59;73.91;100421.56;5059212;28;20036;-44
2022/05/31 06:49:39;;;;;;;5.70;4.72;;;;;;;10.60;73.62;100420.50;5058911;28;20040;-41
2022/05/31 06:57:42;;;;;;;7.45;4.85;;;;;;;10.51;73.33;100403.72;5061497;28;20449;-41
2022/05/31 07:00:12;;;;;;;5.15;4.40;;;;;;;10.65;73.57;100420.75;5058572;28;20115;-42
2022/05/31 07:02:38;;;;;;;5.60;3.90;;;;;;;10.51;73.47;100398.38;5041901;28;20033;-41
2022/05/31 07:05:04;;;;;;;6.45;3.85;;;;;;;10.64;73.57;100424.47;5076104;28;20082;-42
2022/05/31 07:07:30;;;;;;;6.93;4.00;;;;;;;10.67;73.26;100426.75;5076615;28;20042;-41
2022/05/31 07:09:56;;;;;;;7.80;4.07;;;;;;;10.64;73.67;100417.25;5076319;28;20048;-42
2022/05/31 07:12:22;;;;;;;6.38;3.35;;;;;;;10.63;73.58;100420.94;5041686;28;20036;-42
2022/05/31 07:14:48;;;;;;;7.85;4.10;;;;;;;10.70;73.07;100422.84;5058218;28;20025;-42
2022/05/31 07:17:14;;;;;;;4.10;3.70;;;;;;;10.68;73.17;100425.75;5041752;28;20028;-43
2022/05/31 07:19:40;;;;;;;5.82;3.92;;;;;;;10.80;73.02;100426.84;5058063;28;20450;-43
2022/05/31 07:22:06;;;;;;;4.50;3.97;;;;;;;10.72;72.51;100415.44;5075887;28;20028;-43
2022/05/31 07:24:31;;;;;;;6.38;3.83;;;;;;;11.00;72.59;100428.84;5075484;28;20405;-42
2022/05/31 07:26:58;;;;;;;6.55;3.72;;;;;;;11.00;72.31;100436.91;5057913;28;20081;-43
2022/05/31 07:29:24;;;;;;;5.68;3.60;;;;;;;11.09;72.21;100441.13;5076629;28;20032;-45
2022/05/31 07:31:50;;;;;;;6.85;4.13;;;;;;;11.07;71.03;100407.38;5067561;28;20076;-45
2022/05/31 07:34:17;;;;;;;6.05;3.95;;;;;;;11.32;70.25;100440.81;5092436;28;20067;-43
2022/05/31 07:36:43;;;;;;;10.55;3.75;;;;;;;11.39;70.20;100440.84;5084565;28;20033;-43
2022/05/31 07:39:12;;;;;;;5.90;3.80;;;;;;;11.35;70.80;100437.75;5064941;28;20028;-42
2022/05/31 07:41:37;;;;;;;5.82;3.80;;;;;;;11.43;70.00;100434.03;5079594;28;20032;-43
2022/05/31 07:44:04;;;;;;;4.80;3.90;;;;;;;11.37;69.90;100427.59;5059403;28;20032;-44
2022/05/31 07:46:30;;;;;;;3.38;2.70;;;;;;;11.45;70.06;100425.78;5075998;28;20032;-43
2022/05/31 07:48:57;;;;;;;5.00;4.13;;;;;;;11.62;69.48;100443.22;5075645;28;20040;-44
2022/05/31 07:51:24;;;;;;;5.25;3.45;;;;;;;11.58;68.06;100421.28;5075278;28;20036;-43
2022/05/31 07:53:51;;;;;;;6.72;3.58;;;;;;;11.72;67.89;100434.75;5075584;28;20032;-42
2022/05/31 07:56:17;;;;;;;6.70;3.20;;;;;;;11.78;68.08;100442.88;5075242;28;20032;-43
2022/05/31 07:58:44;;;;;;;6.97;3.58;;;;;;;11.89;67.44;100427.19;5057911;28;20075;-42
2022/05/31 08:01:13;;;;;;;9.38;3.65;;;;;;;12.10;66.59;100432.41;5057593;28;20603;-42
2022/05/31 08:03:39;;;;;;;5.15;3.65;;;;;;;12.22;66.10;100424.59;5057897;28;20028;-42
2022/05/31 08:06:10;;;;;;;5.15;3.38;;;;;;;12.37;66.36;100424.38;5057458;28;20059;-43
2022/05/31 08:08:36;;;;;;;4.65;3.88;;;;;;;12.35;66.18;100431.81;5058224;28;20028;-43
2022/05/31 08:11:05;;;;;;;6.25;3.72;;;;;;;12.43;65.52;100426.25;5057350;28;20036;-43
2022/05/31 08:13:32;;;;;;;5.25;3.30;;;;;;;12.46;65.47;100428.53;5057362;28;20473;-42
2022/05/31 08:15:59;;;;;;;7.40;3.20;;;;;;;12.66;65.19;100428.50;5075077;28;20032;-43
2022/05/31 08:18:25;;;;;;;3.17;2.45;;;;;;;12.70;65.06;100426.22;5057435;28;20090;-43
2022/05/31 08:20:59;;;;;;;6.47;3.20;;;;;;;13.08;64.06;100430.97;5074660;28;20071;-43
2022/05/31 08:23:25;;;;;;;4.85;3.25;;;;;;;13.31;63.21;100433.19;5074367;28;20098;-44
2022/05/31 08:25:54;;;;;;;3.05;2.75;;;;;;;13.43;62.85;100430.66;5056888;28;20036;-42
2022/05/31 08:28:20;;;;;;;5.85;2.88;;;;;;;13.61;62.27;100425.38;5057900;28;20025;-43
2022/05/31 08:30:48;;;;;;;3.60;2.60;;;;;;;13.89;61.62;100408.00;5075301;28;20118;-43
2022/05/31 08:33:14;;;;;;;6.95;2.90;;;;;;;14.15;60.09;100428.63;5058171;28;20547;-43
2022/05/31 08:35:40;;;;;;;7.80;2.53;;;;;;;14.34;59.06;100424.13;5074693;28;20071;-43
2022/05/31 08:38:06;;;;;;;4.88;2.58;;;;;;;14.42;58.99;100406.81;5074623;28;20082;-44
2022/05/31 08:40:47;;;;;;;7.05;3.25;;;;;;;14.87;57.74;100426.41;5058035;28;20031;-43
2022/05/31 08:43:18;;;;;;;5.35;2.20;;;;;;;15.01;55.38;100407.34;5042582;28;20025;-43
2022/05/31 08:45:53;;;;;;;10.68;2.50;;;;;;;15.18;55.32;100403.00;5074536;28;20366;-43
2022/05/31 08:48:33;;;;;;;6.00;2.60;;;;;;;15.46;55.21;100423.28;5074085;28;20119;-42
2022/05/31 08:57:01;;;;;;;3.80;2.50;;;;;;;15.70;54.38;100421.50;5059646;28;20043;-43
2022/05/31 08:59:35;;;;;;;4.47;2.00;;;;;;;15.69;54.29;100419.84;5075641;28;20028;-42
2022/05/31 09:02:06;;;;;;;5.80;2.03;;;;;;;15.80;53.60;100419.09;5056983;28;20500;-42
2022/05/31 09:04:39;;;;;;;7.05;2.10;;;;;;;15.92;52.86;100413.75;5074665;28;20047;-42
2022/05/31 09:07:16;;;;;;;4.93;2.17;;;;;;;15.91;51.56;100413.97;5073466;28;20032;-43
2022/05/31 09:09:54;;;;;;;5.90;2.03;;;;;;;15.91;51.06;100408.56;5073017;28;20068;-43
2022/05/31 09:12:36;;;;;;;3.60;1.65;;;;;;;16.18;52.23;100417.13;5055276;28;20090;-42
2022/05/31 09:15:11;;;;;;;3.78;1.20;;;;;;;16.51;49.35;100415.75;5055845;28;20044;-43
2022/05/31 09:18:06;;;;;;;6.45;1.85;;;;;;;17.07;48.94;100408.09;5073412;28;20025;-43
2022/05/31 09:20:47;;;;;;;4.80;1.42;;;;;;;17.74;47.66;100405.69;5042613;28;20037;-43
2022/05/31 09:23:20;;;;;;;4.22;1.52;;;;;;;17.67;47.86;100405.00;5061732;28;20052;-43
2022/05/31 09:25:49;;;;;;;4.65;1.48;;;;;;;18.09;48.24;100401.19;5093381;28;20491;-42
2022/05/31 09:28:40;;;;;;;2.25;1.42;;;;;;;19.01;41.95;100388.22;5075235;28;20081;-42
2022/05/31 09:31:32;;;;;;;2.13;1.30;;;;;;;18.79;43.63;100382.72;5079165;28;20499;-42
2022/05/31 09:34:32;;;;;;;5.65;1.52;;;;;;;18.26;43.21;100393.88;5075262;28;20054;-42
2022/05/31 09:37:29;;;;;;;1.00;0.90;;;;;;;18.25;44.22;100394.94;5075408;28;20039;-42
2022/05/31 09:40:26;;;;;;;4.40;1.40;;;;;;;19.16;41.92;100382.97;5062802;28;20089;-45
2022/05/31 09:43:32;;;;;;;3.63;1.73;;;;;;;18.40;44.33;100385.38;5079873;28;20626;-43
2022/05/31 09:46:38;;;;;;;4.00;1.60;;;;;;;17.88;45.10;100389.13;5067274;28;20099;-43
2022/05/31 09:49:30;;;;;;;1.67;1.00;;;;;;;17.16;45.63;100383.09;5066577;28;20504;-42
2022/05/31 09:51:55;;;;;;;2.72;1.50;;;;;;;16.89;47.68;100376.53;5079126;28;20036;-43
2022/05/31 09:57:15;;;;;;;5.97;1.40;;;;;;;19.50;43.21;100374.66;5068938;28;20035;-43
2022/05/31 09:59:48;;;;;;;3.25;1.38;;;;;;;20.81;41.74;100377.22;5081372;28;20116;-44
2022/05/31 10:02:28;;;;;;;2.60;1.10;;;;;;;22.22;38.77;100359.88;5081206;28;20368;-44
2022/05/31 10:05:17;;;;;;;4.90;1.23;;;;;;;20.98;36.43;100371.56;5082545;28;20028;-43
2022/05/31 10:07:44;;;;;;;7.30;1.40;;;;;;;19.73;39.85;100368.94;5084230;28;20036;-44
2022/05/31 10:10:17;;;;;;;3.88;1.40;;;;;;;19.22;42.59;100365.63;5098103;28;20388;-44
2022/05/31 10:13:03;;;;;;;2.95;1.20;;;;;;;18.71;42.35;100373.91;5098604;28;20039;-42
2022/05/31 10:15:37;;;;;;;3.42;1.40;;;;;;;18.39;45.43;100368.25;5079512;28;20123;-41
2022/05/31 10:18:06;;;;;;;2.50;1.20;;;;;;;17.76;46.33;100375.56;5079279;28;20036;-43
2022/05/31 10:20:32;;;;;;;4.57;1.30;;;;;;;17.24;47.27;100378.38;5097438;28;20268;-41
2022/05/31 10:23:03;;;;;;;3.85;1.63;;;;;;;16.92;47.96;100376.03;5078857;28;20376;-41
2022/05/31 10:25:35;;;;;;;2.63;1.10;;;;;;;16.69;48.13;100371.44;5062451;28;20093;-41
2022/05/31 10:28:05;;;;;;;3.20;1.33;;;;;;;16.57;49.23;100360.59;5079766;28;20062;-42
2022/05/31 10:30:32;;;;;;;3.70;1.20;;;;;;;16.63;49.69;100365.09;5098082;28;20145;-42
2022/05/31 10:33:10;;;;;;;2.33;1.10;;;;;;;16.58;50.08;100345.97;5098759;28;20111;-41
2022/05/31 10:35:40;;;;;;;4.38;1.20;;;;;;;16.43;49.75;100370.84;5099185;28;20059;-42
2022/05/31 10:38:29;;;;;;;3.55;1.35;;;;;;;15.98;52.04;100380.31;5081988;28;20505;-42
2022/05/31 10:41:02;;;;;;;4.03;1.38;;;;;;;15.58;53.05;100375.44;5101435;28;20028;-41
2022/05/31 10:43:34;;;;;;;6.53;1.33;;;;;;;15.09;54.66;100382.69;5101535;28;20102;-41
2022/05/31 10:46:07;;;;;;;4.35;1.33;;;;;;;14.80;56.67;100405.88;5079685;28;20024;-41
2022/05/31 10:48:38;;;;;;;11.43;2.17;;;;;;;14.11;58.03;100430.09;5104379;28;20036;-41
2022/05/31 10:51:11;;;;;;;7.50;2.13;;;;;;;13.28;62.40;100442.53;5098678;28;20032;-43
2022/05/31 10:54:02;;;;;;;3.42;1.30;;;;;;;12.66;74.11;100428.50;5080149;28;20028;-42
2022/05/31 10:56:38;;;;;;;3.63;0.95;;;;;;;12.43;72.09;100436.19;5079744;28;20027;-41
2022/05/31 10:59:15;;;;;;;4.53;1.00;;;;;;;12.27;69.64;100414.00;5066304;28;20067;-41
2022/05/31 11:02:20;;;;;;;2.50;1.00;;;;;;;12.49;70.62;100433.50;5080977;28;20533;-42
2022/05/31 11:05:12;;;;;;;2.42;1.38;;;;;;;12.90;69.85;100434.28;5067116;28;20110;-42
2022/05/31 11:14:16;;;;;;;5.03;1.27;;;;;;;14.49;66.30;100426.53;5083565;28;20032;-42
2022/05/31 11:17:01;;;;;;;1.40;1.10;;;;;;;15.06;64.82;100419.16;5072392;28;20052;-42
2022/05/31 11:19:42;;;;;;;1.33;1.00;;;;;;;15.37;63.49;100417.34;5099645;28;20080;-43
2022/05/31 11:22:35;;;;;;;4.90;1.13;;;;;;;16.63;62.77;100397.63;5098445;28;20028;-42
2022/05/31 11:25:28;;;;;;;2.92;1.05;;;;;;;16.65;60.09;100411.75;5064055;28;20551;-44
2022/05/31 11:28:11;;;;;;;1.17;1.00;;;;;;;16.30;61.09;100404.41;5064798;28;20032;-48
2022/05/31 11:30:57;;;;;;;1.35;0.90;;;;;;;16.73;60.30;100402.44;5080868;28;20029;-42
2022/05/31 11:33:54;;;;;;;1.25;0.65;;;;;;;18.09;55.97;100406.59;5079643;28;20036;-43
2022/05/31 11:36:59;;;;;;;1.45;0.80;;;;;;;19.31;52.31;100395.94;5066244;28;20036;-42
2022/05/31 11:39:58;;;;;;;0.75;0.70;;;;;;;19.59;50.43;100389.47;5061120;28;20036;-44
2022/05/31 11:42:58;;;;;;;3.03;0.80;;;;;;;18.04;53.98;100382.91;5065611;28;20488;-43
2022/05/31 11:45:42;;;;;;;2.72;0.90;;;;;;;17.30;55.35;100397.22;5045975;28;20021;-42
2022/05/31 11:48:27;;;;;;;0.70;0.70;;;;;;;16.42;57.04;100393.59;5058212;28;20104;-43
2022/05/31 11:51:11;;;;;;;1.45;0.70;;;;;;;16.02;58.34;100392.31;5059570;28;20040;-43
2022/05/31 11:53:53;;;;;;;0.85;0.68;;;;;;;15.61;58.82;100431.00;5077089;28;20175;-43
2022/05/31 11:56:58;;;;;;;5.93;1.10;;;;;;;15.02;59.50;100427.94;5042169;28;20024;-44
2022/05/31 11:59:27;;;;;;;;;;;;;;;14.63;59.06;100417.25;5049289;28;20381;-43
2022/05/31 12:02:00;;;;;;;1.00;0.68;;;;;;;14.46;60.40;100427.78;5075092;28;19908;-43
2022/05/31 12:04:35;;;;;;;2.63;1.00;;;;;;;14.47;60.97;100424.03;5074999;28;20024;-43
2022/05/31 12:07:09;;;;;;;1.45;0.95;;;;;;;14.52;60.96;100436.88;5074748;28;20043;-44
2022/05/31 12:09:58;;;;;;;3.50;0.85;;;;;;;14.54;61.74;100440.19;5075424;28;20040;-45
2022/05/31 12:12:31;;;;;;;0.65;0.65;;;;;;;14.59;61.93;100436.84;5061449;28;20033;-44